Hamlin, New York
Current Conditions -  °F | °C
As of 12:54 PM on Sunday 25 Jan 2015 (Local Time) from KROC Reporting Station
Light Snow Light Snow  
Wind Chill:   Ceiling: 2300
Heat Index: 18°   Visibility: 7mi
Dew Point:   Wind: 7mph
Humidity: 68%   Direction: 300°WNW
Pressure: 29.92"   Gusts: NA
Location:  43.3°N, 77.92°W
Report Text: KROC 251754Z 30006KT 7SM -SN BKN023 M08/M13 A2992 RMK AO2 SNE10B38 SLP143 P0000 60000 T10781128 11067 21083 51012
Loading
Personal Weather Stations






























Interactive Weather Map New forecast layout! Learn more

10-Day Weather Forecast

Advertisements
Track Severe Weather on mobile